createdAt,value
2022-12-03T00:00:16.823Z,5.66
2022-12-03T00:01:37.983Z,5.65
2022-12-03T00:02:59.327Z,5.60
2022-12-03T00:04:20.490Z,5.60
2022-12-03T00:05:48.299Z,5.62
2022-12-03T00:07:09.946Z,5.62
2022-12-03T00:08:31.231Z,5.61
2022-12-03T00:09:52.464Z,5.61
2022-12-03T00:11:13.726Z,5.60
2022-12-03T00:12:35.185Z,5.58
2022-12-03T00:13:56.101Z,5.59
2022-12-03T00:15:17.506Z,5.59
2022-12-03T00:16:38.351Z,5.60
2022-12-03T00:17:59.792Z,5.60
2022-12-03T00:19:21.156Z,5.64
2022-12-03T00:20:42.460Z,5.67
2022-12-03T00:22:03.700Z,5.67
2022-12-03T00:23:25.309Z,5.67
2022-12-03T00:24:46.824Z,5.64
2022-12-03T00:26:07.903Z,5.68
2022-12-03T00:27:28.660Z,5.70
2022-12-03T00:28:49.949Z,5.69
2022-12-03T00:30:11.723Z,5.72
2022-12-03T00:31:33.120Z,5.75
2022-12-03T00:32:54.081Z,5.73
2022-12-03T00:34:15.500Z,5.71
2022-12-03T00:35:36.688Z,5.75
2022-12-03T00:36:58.005Z,5.75
2022-12-03T00:38:19.218Z,5.77
2022-12-03T00:39:40.414Z,5.77
2022-12-03T00:41:01.283Z,5.77
2022-12-03T00:42:22.556Z,5.80
2022-12-03T00:43:43.802Z,5.80
2022-12-03T00:45:06.632Z,5.82
2022-12-03T00:46:27.773Z,5.83
2022-12-03T00:47:48.840Z,5.79
2022-12-03T00:49:10.071Z,5.78
2022-12-03T00:50:31.483Z,5.79
2022-12-03T00:51:52.706Z,5.77
2022-12-03T00:53:13.593Z,5.79
2022-12-03T00:54:34.885Z,5.79
2022-12-03T00:55:55.759Z,5.75
2022-12-03T00:57:17.866Z,5.75
2022-12-03T00:58:39.114Z,5.78
2022-12-03T01:00:00.251Z,5.81
2022-12-03T01:01:21.595Z,5.80
2022-12-03T01:02:42.421Z,5.82
2022-12-03T01:04:04.039Z,5.80
2022-12-03T01:05:25.278Z,5.80
2022-12-03T01:06:46.393Z,5.78
2022-12-03T01:08:07.648Z,5.80
2022-12-03T01:09:28.577Z,5.80
2022-12-03T01:10:49.633Z,5.77
2022-12-03T01:12:12.145Z,5.79
2022-12-03T01:13:33.300Z,5.80
2022-12-03T01:14:54.982Z,5.79
2022-12-03T01:16:16.356Z,5.79
2022-12-03T01:17:38.278Z,5.77
2022-12-03T01:18:59.156Z,5.73
2022-12-03T01:20:20.448Z,5.73
2022-12-03T01:21:46.622Z,5.73
2022-12-03T01:23:08.057Z,5.70
2022-12-03T01:24:29.330Z,5.72
2022-12-03T01:25:50.183Z,5.72
2022-12-03T01:27:11.422Z,5.74
2022-12-03T01:28:32.630Z,5.75
2022-12-03T01:29:53.718Z,5.74
2022-12-03T01:31:33.303Z,5.74
2022-12-03T01:32:54.853Z,5.68
2022-12-03T01:34:16.076Z,5.70
2022-12-03T01:35:36.839Z,5.68
2022-12-03T01:36:58.360Z,5.69
2022-12-03T01:38:19.187Z,5.72
2022-12-03T01:39:40.933Z,5.74
2022-12-03T01:41:05.919Z,5.74
2022-12-03T01:42:33.036Z,5.74
2022-12-03T01:43:55.356Z,5.73
2022-12-03T01:45:23.854Z,5.76
2022-12-03T01:46:46.665Z,5.79
2022-12-03T01:48:09.660Z,5.78
2022-12-03T01:49:43.067Z,5.81
2022-12-03T01:51:04.415Z,5.79
2022-12-03T01:52:30.395Z,5.81
2022-12-03T01:53:51.738Z,5.81
2022-12-03T01:55:26.518Z,5.82
2022-12-03T01:56:48.286Z,5.85
2022-12-03T01:58:13.771Z,5.82
2022-12-03T01:59:38.676Z,5.78
2022-12-03T02:01:02.729Z,5.77
2022-12-03T02:02:29.904Z,5.76
2022-12-03T02:03:50.990Z,5.78
2022-12-03T02:05:18.946Z,5.75
2022-12-03T02:06:40.715Z,5.73
2022-12-03T02:08:02.118Z,5.72
2022-12-03T02:09:23.440Z,5.71
2022-12-03T02:10:44.589Z,5.72
2022-12-03T02:12:06.205Z,5.69
2022-12-03T02:13:27.515Z,5.71
2022-12-03T02:14:49.306Z,5.67
2022-12-03T02:16:11.048Z,5.67
2022-12-03T02:17:32.786Z,5.65
2022-12-03T02:18:53.680Z,5.66
2022-12-03T02:20:14.880Z,5.66
2022-12-03T02:21:48.088Z,5.69
2022-12-03T02:23:43.736Z,5.69
2022-12-03T02:25:24.675Z,5.67
2022-12-03T02:26:46.282Z,5.63
2022-12-03T02:28:09.781Z,5.62
2022-12-03T02:29:31.050Z,5.67
2022-12-03T02:30:51.900Z,5.67
2022-12-03T02:32:13.080Z,5.67
2022-12-03T02:33:34.640Z,5.62
2022-12-03T02:34:56.684Z,5.66
2022-12-03T02:36:18.133Z,5.66
2022-12-03T02:37:38.913Z,5.63
2022-12-03T02:39:00.922Z,5.61
2022-12-03T02:40:24.650Z,5.60
2022-12-03T02:42:04.075Z,5.59
2022-12-03T02:43:25.810Z,5.57
2022-12-03T02:44:46.987Z,5.50
2022-12-03T02:46:09.058Z,5.51
2022-12-03T02:47:32.114Z,5.54
2022-12-03T02:48:53.053Z,5.53
2022-12-03T02:50:18.542Z,5.54
2022-12-03T02:51:39.439Z,5.55
2022-12-03T02:53:03.843Z,5.51
2022-12-03T02:54:25.563Z,5.46
2022-12-03T02:55:47.790Z,5.46
2022-12-03T02:57:09.064Z,5.47
2022-12-03T02:58:32.744Z,5.49
2022-12-03T02:59:53.850Z,5.48
2022-12-03T03:01:15.847Z,5.46
2022-12-03T03:02:39.224Z,5.47
2022-12-03T03:04:02.683Z,5.49
2022-12-03T03:05:24.406Z,5.46
2022-12-03T03:06:46.929Z,5.48
2022-12-03T03:08:09.029Z,5.46
2022-12-03T03:09:30.222Z,5.43
2022-12-03T03:10:51.726Z,5.40
2022-12-03T03:12:12.966Z,5.41
2022-12-03T03:13:35.572Z,5.41
2022-12-03T03:14:58.390Z,5.38
2022-12-03T03:16:19.714Z,5.35
2022-12-03T03:17:42.502Z,5.34
2022-12-03T03:19:03.666Z,5.24
2022-12-03T03:20:24.604Z,5.19
2022-12-03T03:21:46.029Z,5.14
2022-12-03T03:23:17.933Z,5.14
2022-12-03T03:24:39.342Z,5.12
2022-12-03T03:26:05.577Z,5.04
2022-12-03T03:27:27.148Z,5.02
2022-12-03T03:28:50.296Z,5.01
2022-12-03T03:30:12.069Z,4.98
2022-12-03T03:31:33.161Z,4.89
2022-12-03T03:32:54.170Z,4.84
2022-12-03T03:34:15.978Z,4.86
2022-12-03T03:35:38.125Z,4.86
2022-12-03T03:36:59.305Z,4.86
2022-12-03T03:38:22.188Z,4.83
2022-12-03T03:39:43.385Z,4.84
2022-12-03T03:41:06.202Z,4.87
2022-12-03T03:42:27.593Z,4.83
2022-12-03T03:43:50.060Z,4.83
2022-12-03T03:45:12.722Z,4.79
2022-12-03T03:46:35.259Z,4.80
2022-12-03T03:48:00.134Z,4.81
2022-12-03T03:49:22.181Z,4.82
2022-12-03T03:50:44.587Z,4.84
2022-12-03T03:52:05.861Z,4.83
2022-12-03T03:53:27.092Z,4.84
2022-12-03T03:54:48.264Z,4.83
2022-12-03T03:56:09.966Z,4.84
2022-12-03T03:57:30.939Z,4.87
2022-12-03T03:58:52.196Z,4.87
2022-12-03T04:00:13.590Z,4.85
2022-12-03T04:01:35.108Z,4.84
2022-12-03T04:02:56.550Z,4.84
2022-12-03T04:04:20.943Z,4.82
2022-12-03T04:05:42.032Z,4.81
2022-12-03T04:07:03.296Z,4.78
2022-12-03T04:08:24.600Z,4.76
2022-12-03T04:09:45.673Z,4.68
2022-12-03T04:11:29.848Z,4.69
2022-12-03T04:12:56.855Z,4.64
2022-12-03T04:14:17.888Z,4.63
2022-12-03T04:15:39.367Z,4.63
2022-12-03T04:17:02.741Z,4.61
2022-12-03T04:18:42.223Z,4.60
2022-12-03T04:20:03.895Z,4.58
2022-12-03T04:21:43.309Z,4.60
2022-12-03T04:23:05.016Z,4.58
2022-12-03T04:24:26.150Z,4.60
2022-12-03T04:26:05.643Z,4.61
2022-12-03T04:27:45.370Z,4.61
2022-12-03T04:29:06.225Z,4.59
2022-12-03T04:30:27.610Z,4.59
2022-12-03T04:32:07.292Z,4.61
2022-12-03T04:33:46.618Z,4.58
2022-12-03T04:35:28.369Z,4.59
2022-12-03T04:36:49.771Z,4.60
2022-12-03T04:38:12.000Z,4.60
2022-12-03T04:39:33.278Z,4.61
2022-12-03T04:41:06.452Z,4.60
2022-12-03T04:42:27.633Z,4.57
2022-12-03T04:44:07.029Z,4.59
2022-12-03T04:45:28.066Z,4.53
2022-12-03T04:46:49.236Z,4.55
2022-12-03T04:48:10.658Z,4.52
2022-12-03T04:49:32.418Z,4.56
2022-12-03T04:50:53.832Z,4.56
2022-12-03T04:52:16.662Z,4.57
2022-12-03T04:53:41.895Z,4.56
2022-12-03T04:55:07.200Z,4.57
2022-12-03T04:56:28.155Z,4.59
2022-12-03T04:57:49.373Z,4.56
2022-12-03T04:59:15.758Z,4.56
2022-12-03T05:00:37.074Z,4.57
2022-12-03T05:01:58.588Z,4.56
2022-12-03T05:03:19.674Z,4.59
2022-12-03T05:04:41.128Z,4.59
2022-12-03T05:06:02.248Z,4.57
2022-12-03T05:07:23.500Z,4.57
2022-12-03T05:08:44.649Z,4.50
2022-12-03T05:10:06.931Z,4.47
2022-12-03T05:11:28.250Z,4.47
2022-12-03T05:12:49.283Z,4.40
2022-12-03T05:14:11.262Z,4.45
2022-12-03T05:15:32.361Z,4.41
2022-12-03T05:16:53.293Z,4.43
2022-12-03T05:18:14.398Z,4.43
2022-12-03T05:19:53.948Z,4.47
2022-12-03T05:21:15.168Z,4.45
2022-12-03T05:22:36.723Z,4.47
2022-12-03T05:23:57.924Z,4.48
2022-12-03T05:25:18.775Z,4.48
2022-12-03T05:26:39.791Z,4.49
2022-12-03T05:28:00.710Z,4.52
2022-12-03T05:29:22.061Z,4.45
2022-12-03T05:30:44.287Z,4.46
2022-12-03T05:32:24.206Z,4.45
2022-12-03T05:33:45.269Z,4.45
2022-12-03T05:35:06.787Z,4.43
2022-12-03T05:36:27.946Z,4.44
2022-12-03T05:37:48.979Z,4.40
2022-12-03T05:39:10.295Z,4.39
2022-12-03T05:40:31.536Z,4.37
2022-12-03T05:42:11.294Z,4.38
2022-12-03T05:43:32.155Z,4.38
2022-12-03T05:44:53.521Z,4.39
2022-12-03T05:46:14.741Z,4.45
2022-12-03T05:47:35.919Z,4.46
2022-12-03T05:48:57.163Z,4.53
2022-12-03T05:50:19.546Z,4.58
2022-12-03T05:51:40.435Z,4.58
2022-12-03T05:53:01.636Z,4.59
2022-12-03T05:54:23.115Z,4.61
2022-12-03T05:55:44.407Z,4.60
2022-12-03T05:57:05.599Z,4.59
2022-12-03T05:58:26.941Z,4.58
2022-12-03T05:59:47.950Z,4.63
2022-12-03T06:01:08.707Z,4.63
2022-12-03T06:02:30.091Z,4.69
2022-12-03T06:03:51.319Z,4.73
2022-12-03T06:05:14.710Z,4.74
2022-12-03T06:06:35.693Z,4.74
2022-12-03T06:07:56.744Z,4.76
2022-12-03T06:09:18.060Z,4.83
2022-12-03T06:10:39.342Z,4.90
2022-12-03T06:12:00.906Z,4.95
2022-12-03T06:13:21.911Z,4.95
2022-12-03T06:14:43.093Z,4.98
2022-12-03T06:16:04.457Z,5.05
2022-12-03T06:17:25.696Z,5.14
2022-12-03T06:18:46.706Z,5.20
2022-12-03T06:20:09.140Z,5.25
2022-12-03T06:21:30.129Z,5.19
2022-12-03T06:22:51.463Z,5.24
2022-12-03T06:24:12.992Z,5.31
2022-12-03T06:25:34.227Z,5.42
2022-12-03T06:26:55.709Z,5.55
2022-12-03T06:28:16.602Z,5.62
2022-12-03T06:29:37.988Z,5.70
2022-12-03T06:30:58.955Z,5.73
2022-12-03T06:32:20.118Z,5.77
2022-12-03T06:33:41.039Z,5.77
2022-12-03T06:35:02.460Z,5.76
2022-12-03T06:36:23.662Z,5.81
2022-12-03T06:37:44.864Z,5.83
2022-12-03T06:39:06.065Z,5.86
2022-12-03T06:40:27.365Z,5.90
2022-12-03T06:41:48.635Z,5.90
2022-12-03T06:43:09.931Z,5.93
2022-12-03T06:44:30.682Z,5.93
2022-12-03T06:45:51.747Z,5.90
2022-12-03T06:47:12.973Z,5.93
2022-12-03T06:48:34.342Z,5.99
2022-12-03T06:49:55.561Z,6.02
2022-12-03T06:51:16.588Z,6.04
2022-12-03T06:52:37.774Z,6.08
2022-12-03T06:53:59.086Z,6.18
2022-12-03T06:55:20.242Z,6.29
2022-12-03T06:56:45.194Z,6.43
2022-12-03T06:58:06.407Z,6.75
2022-12-03T06:59:28.815Z,7.10
2022-12-03T07:00:49.986Z,7.26
2022-12-03T07:02:12.651Z,7.48
2022-12-03T07:03:33.925Z,7.75
2022-12-03T07:04:55.096Z,7.88
2022-12-03T07:06:16.648Z,7.97
2022-12-03T07:07:37.660Z,7.96
2022-12-03T07:08:58.791Z,8.10
2022-12-03T07:10:20.027Z,8.58
2022-12-03T07:11:41.055Z,9.08
2022-12-03T07:13:02.584Z,9.19
2022-12-03T07:14:23.617Z,9.25
2022-12-03T07:15:44.882Z,9.32
2022-12-03T07:17:06.085Z,9.22
2022-12-03T07:18:27.378Z,9.02
2022-12-03T07:19:48.379Z,9.11
2022-12-03T07:21:09.811Z,9.19
2022-12-03T07:22:30.908Z,9.29
2022-12-03T07:23:52.188Z,9.62
2022-12-03T07:25:19.540Z,9.80
2022-12-03T07:26:44.196Z,11.21
2022-12-03T07:28:05.455Z,12.38
2022-12-03T07:29:26.381Z,12.64
2022-12-03T07:30:47.210Z,14.72
2022-12-03T07:32:08.424Z,15.97
2022-12-03T07:33:29.367Z,16.72
2022-12-03T07:34:51.673Z,17.63
2022-12-03T07:36:13.168Z,18.80
2022-12-03T07:37:34.784Z,19.27
2022-12-03T07:38:57.100Z,18.96
2022-12-03T07:40:20.268Z,18.06
2022-12-03T07:41:41.450Z,18.46
2022-12-03T07:43:04.908Z,19.93
2022-12-03T07:44:26.466Z,20.81
2022-12-03T07:45:47.963Z,21.18
2022-12-03T07:47:09.017Z,21.38
2022-12-03T07:48:30.252Z,21.95
2022-12-03T07:49:52.452Z,21.75
2022-12-03T07:51:15.597Z,21.76
2022-12-03T07:52:36.885Z,22.44
2022-12-03T07:53:58.122Z,22.76
2022-12-03T07:55:20.052Z,23.54
2022-12-03T07:56:42.590Z,23.33
2022-12-03T07:58:03.736Z,23.40
2022-12-03T07:59:24.844Z,23.21
2022-12-03T08:00:45.905Z,23.64
2022-12-03T08:02:07.174Z,23.46
2022-12-03T08:03:28.496Z,23.36
2022-12-03T08:04:49.525Z,23.49
2022-12-03T08:06:10.808Z,23.32
2022-12-03T08:07:31.968Z,21.76
2022-12-03T08:08:52.775Z,19.98
2022-12-03T08:10:13.877Z,17.90
2022-12-03T08:11:35.029Z,16.74
2022-12-03T08:12:59.282Z,15.91
2022-12-03T08:14:20.918Z,15.59
2022-12-03T08:15:42.338Z,15.30
2022-12-03T08:17:10.075Z,14.98
2022-12-03T08:18:31.343Z,15.06
2022-12-03T08:19:53.345Z,15.28
2022-12-03T08:21:17.157Z,15.40
2022-12-03T08:22:38.256Z,14.99
2022-12-03T08:23:59.564Z,15.06
2022-12-03T08:25:30.502Z,14.76
2022-12-03T08:26:51.665Z,14.05
2022-12-03T08:28:19.160Z,14.03
2022-12-03T08:29:40.229Z,14.04
2022-12-03T08:31:18.095Z,13.79
2022-12-03T08:32:39.148Z,13.83
2022-12-03T08:34:26.222Z,13.63
2022-12-03T08:35:50.885Z,13.61
2022-12-03T08:37:21.195Z,12.95
2022-12-03T08:38:49.417Z,13.07
2022-12-03T08:40:23.795Z,13.00
2022-12-03T08:42:05.165Z,13.21
2022-12-03T08:43:32.959Z,13.14
2022-12-03T08:44:55.776Z,13.04
2022-12-03T08:46:19.488Z,13.37
2022-12-03T08:47:40.815Z,14.05
2022-12-03T08:49:02.017Z,13.68
2022-12-03T08:50:32.135Z,14.00
2022-12-03T08:52:00.562Z,14.31
2022-12-03T08:53:36.255Z,13.97
2022-12-03T08:54:57.890Z,13.86
2022-12-03T08:56:28.037Z,13.53
2022-12-03T08:57:49.140Z,13.55
2022-12-03T08:59:32.358Z,14.52
2022-12-03T09:01:16.587Z,14.72
2022-12-03T09:02:37.787Z,15.81
2022-12-03T09:04:16.320Z,17.11
2022-12-03T09:05:37.494Z,17.13
2022-12-03T09:06:58.882Z,16.38
2022-12-03T09:08:20.197Z,16.06
2022-12-03T09:09:41.870Z,16.29
2022-12-03T09:11:02.948Z,16.24
2022-12-03T09:12:24.215Z,16.14
2022-12-03T09:13:45.534Z,16.24
2022-12-03T09:15:07.366Z,16.34
2022-12-03T09:16:28.561Z,16.81
2022-12-03T09:17:49.900Z,16.97
2022-12-03T09:19:10.751Z,17.86
2022-12-03T09:20:35.019Z,17.78
2022-12-03T09:21:58.609Z,18.57
2022-12-03T09:23:19.538Z,18.88
2022-12-03T09:24:40.733Z,19.57
2022-12-03T09:26:02.074Z,19.53
2022-12-03T09:27:23.282Z,19.35
2022-12-03T09:28:44.613Z,20.05
2022-12-03T09:30:06.529Z,20.13
2022-12-03T09:31:27.559Z,20.19
2022-12-03T09:32:48.712Z,19.94
2022-12-03T09:34:10.314Z,20.36
2022-12-03T09:35:31.210Z,19.82
2022-12-03T09:36:52.573Z,19.22
2022-12-03T09:38:13.934Z,19.26
2022-12-03T09:39:35.465Z,19.27
2022-12-03T09:40:56.835Z,19.76
2022-12-03T09:42:18.563Z,19.22
2022-12-03T09:45:20.850Z,19.79
2022-12-03T09:46:43.281Z,20.56
2022-12-03T09:48:04.888Z,20.03
2022-12-03T09:49:27.291Z,19.59
2022-12-03T09:50:49.484Z,18.94
2022-12-03T09:52:21.385Z,18.66
2022-12-03T09:53:42.951Z,16.76
2022-12-03T09:55:11.644Z,16.19
2022-12-03T09:56:35.910Z,16.12
2022-12-03T09:57:57.538Z,15.94
2022-12-03T09:59:19.123Z,15.99
2022-12-03T10:00:41.884Z,15.68
2022-12-03T10:02:03.558Z,15.36
2022-12-03T10:03:30.258Z,15.04
2022-12-03T10:04:53.397Z,14.62
2022-12-03T10:06:21.105Z,14.53
2022-12-03T10:07:42.731Z,14.64
2022-12-03T10:09:04.395Z,14.20
2022-12-03T10:10:25.364Z,14.30
2022-12-03T10:11:46.179Z,13.95
2022-12-03T10:13:12.431Z,13.64
2022-12-03T10:14:33.308Z,13.32
2022-12-03T10:15:56.810Z,13.11
2022-12-03T10:17:18.176Z,12.87
2022-12-03T10:18:43.611Z,12.84
2022-12-03T10:20:05.494Z,12.80
2022-12-03T10:21:40.299Z,12.79
2022-12-03T10:23:01.170Z,12.82
2022-12-03T10:24:27.278Z,12.62
2022-12-03T10:26:00.190Z,12.75
2022-12-03T10:27:31.032Z,12.97
2022-12-03T10:28:53.258Z,12.88
2022-12-03T10:30:23.311Z,13.47
2022-12-03T10:31:45.033Z,13.66
2022-12-03T10:33:17.376Z,13.79
2022-12-03T10:34:41.887Z,13.70
2022-12-03T10:36:15.415Z,14.05
2022-12-03T10:37:36.628Z,14.32
2022-12-03T10:39:16.910Z,14.75
2022-12-03T10:40:39.656Z,15.19
2022-12-03T10:42:16.216Z,15.61
2022-12-03T10:43:37.475Z,15.51
2022-12-03T10:45:24.865Z,15.78
2022-12-03T10:47:05.334Z,15.88
2022-12-03T10:48:27.546Z,15.96
2022-12-03T10:50:03.286Z,15.68
2022-12-03T10:51:24.552Z,15.54
2022-12-03T10:52:46.642Z,15.50
2022-12-03T10:54:35.504Z,15.49
2022-12-03T10:55:59.798Z,15.30
2022-12-03T10:57:21.314Z,15.23
2022-12-03T10:58:42.438Z,15.15
2022-12-03T11:00:04.639Z,15.04
2022-12-03T11:01:27.020Z,14.63
2022-12-03T11:02:56.080Z,14.62
2022-12-03T11:04:20.864Z,14.78
2022-12-03T11:05:41.897Z,14.98
2022-12-03T11:07:09.923Z,14.93
2022-12-03T11:08:34.776Z,14.68
2022-12-03T11:09:56.022Z,14.65
2022-12-03T11:11:39.510Z,14.71
2022-12-03T11:13:44.321Z,14.68
2022-12-03T11:15:07.289Z,14.88
2022-12-03T11:16:51.557Z,14.75
2022-12-03T11:18:38.593Z,14.58
2022-12-03T11:19:59.687Z,14.79
2022-12-03T11:21:20.776Z,15.10
2022-12-03T11:22:47.254Z,15.50
2022-12-03T11:24:19.837Z,15.35
2022-12-03T11:25:50.739Z,15.70
2022-12-03T11:27:11.972Z,15.86
2022-12-03T11:28:35.700Z,15.82
2022-12-03T11:30:00.450Z,16.00
2022-12-03T11:31:33.400Z,15.99
2022-12-03T11:32:54.580Z,15.96
2022-12-03T11:34:18.530Z,15.86
2022-12-03T11:36:02.059Z,15.26
2022-12-03T11:37:24.583Z,15.51
2022-12-03T11:38:54.605Z,15.48
2022-12-03T11:40:18.793Z,15.14
2022-12-03T11:41:40.041Z,14.77
2022-12-03T11:43:02.152Z,14.87
2022-12-03T11:44:32.461Z,14.61
2022-12-03T11:45:55.421Z,14.60
2022-12-03T11:47:18.646Z,14.44
2022-12-03T11:48:46.488Z,14.26
2022-12-03T11:50:19.882Z,14.23
2022-12-03T11:51:44.862Z,14.21
2022-12-03T11:53:35.654Z,14.06
2022-12-03T11:55:04.378Z,13.89
2022-12-03T11:56:28.735Z,13.84
2022-12-03T11:57:56.704Z,13.94
2022-12-03T11:59:19.286Z,13.85
2022-12-03T12:00:48.464Z,13.85
2022-12-03T12:02:29.660Z,13.70
2022-12-03T12:03:50.926Z,13.61
2022-12-03T12:05:20.037Z,13.50
2022-12-03T12:06:43.287Z,13.58
2022-12-03T12:08:04.774Z,13.19
2022-12-03T12:09:55.013Z,13.12
2022-12-03T12:11:20.343Z,12.96
2022-12-03T12:12:51.067Z,12.88
2022-12-03T12:14:26.453Z,12.51
2022-12-03T12:15:47.533Z,12.65
2022-12-03T12:17:29.875Z,12.67
2022-12-03T12:18:55.173Z,12.71
2022-12-03T12:20:27.236Z,12.83
2022-12-03T12:21:48.618Z,12.72
2022-12-03T12:23:27.902Z,12.60
2022-12-03T12:25:00.094Z,12.63
2022-12-03T12:26:21.280Z,12.75
2022-12-03T12:27:47.280Z,12.76
2022-12-03T12:29:08.356Z,12.78
2022-12-03T12:30:29.579Z,12.71
2022-12-03T12:31:54.174Z,12.63
2022-12-03T12:33:24.457Z,12.60
2022-12-03T12:34:50.876Z,12.53
2022-12-03T12:36:12.028Z,12.56
2022-12-03T12:37:36.993Z,12.31
2022-12-03T12:38:59.873Z,12.27
2022-12-03T12:40:24.712Z,12.08
2022-12-03T12:41:48.963Z,12.24
2022-12-03T12:43:29.626Z,12.32
2022-12-03T12:44:50.685Z,12.13
2022-12-03T12:46:46.134Z,11.99
2022-12-03T12:48:10.159Z,11.92
2022-12-03T12:49:31.595Z,11.80
2022-12-03T12:51:10.984Z,11.50
2022-12-03T12:52:32.277Z,11.41
2022-12-03T12:53:53.908Z,11.40
2022-12-03T12:55:16.603Z,11.25
2022-12-03T12:56:37.735Z,11.16
2022-12-03T12:58:05.814Z,11.10
2022-12-03T12:59:26.864Z,10.92
2022-12-03T13:00:54.726Z,10.87
2022-12-03T13:02:31.735Z,10.91
2022-12-03T13:03:53.421Z,10.83
2022-12-03T13:05:14.716Z,10.73
2022-12-03T13:06:36.135Z,10.60
2022-12-03T13:07:57.307Z,10.45
2022-12-03T13:09:23.817Z,10.41
2022-12-03T13:10:45.498Z,10.45
2022-12-03T13:12:19.571Z,10.46
2022-12-03T13:13:44.231Z,10.50
2022-12-03T13:15:21.607Z,10.35
2022-12-03T13:16:43.256Z,10.39
2022-12-03T13:18:39.867Z,10.34
2022-12-03T13:20:07.668Z,10.39
2022-12-03T13:21:41.384Z,10.44
2022-12-03T13:23:02.455Z,10.46
2022-12-03T13:24:34.224Z,10.48
2022-12-03T13:26:03.706Z,10.43
2022-12-03T13:27:30.729Z,10.42
2022-12-03T13:28:53.630Z,10.48
2022-12-03T13:30:18.977Z,10.50
2022-12-03T13:31:43.845Z,10.47
2022-12-03T13:33:26.588Z,10.41
2022-12-03T13:34:48.048Z,10.24
2022-12-03T13:36:15.162Z,10.27
2022-12-03T13:37:37.626Z,10.36
2022-12-03T13:38:58.781Z,10.32
2022-12-03T13:40:32.961Z,10.26
2022-12-03T13:42:13.467Z,10.26
2022-12-03T13:43:44.367Z,10.26
2022-12-03T13:45:15.142Z,10.12
2022-12-03T13:46:36.564Z,10.09
2022-12-03T13:48:02.901Z,10.09
2022-12-03T13:49:24.541Z,10.04
2022-12-03T13:50:46.191Z,10.06
2022-12-03T13:52:15.721Z,9.95
2022-12-03T13:53:40.423Z,10.00
2022-12-03T13:55:03.982Z,9.98
2022-12-03T13:56:33.035Z,9.94
2022-12-03T13:57:54.721Z,9.88
2022-12-03T13:59:19.286Z,9.88
2022-12-03T14:00:42.975Z,9.83
2022-12-03T14:02:04.035Z,9.74
2022-12-03T14:03:25.189Z,9.73
2022-12-03T14:04:46.413Z,9.70
2022-12-03T14:06:07.632Z,9.59
2022-12-03T14:07:28.913Z,9.51
2022-12-03T14:08:50.067Z,9.50
2022-12-03T14:10:12.287Z,9.49
2022-12-03T14:11:51.955Z,9.47
2022-12-03T14:13:13.132Z,9.42
2022-12-03T14:14:34.973Z,9.42
2022-12-03T14:15:56.123Z,9.43
2022-12-03T14:17:17.345Z,9.40
2022-12-03T14:18:38.380Z,9.35
2022-12-03T14:20:01.563Z,9.37
2022-12-03T14:21:25.770Z,9.31
2022-12-03T14:22:52.013Z,9.32
2022-12-03T14:24:17.103Z,9.29
2022-12-03T14:25:38.381Z,9.27
2022-12-03T14:26:59.503Z,9.16
2022-12-03T14:28:20.850Z,9.15
2022-12-03T14:29:41.707Z,9.10
2022-12-03T14:31:02.882Z,9.01
2022-12-03T14:32:23.974Z,8.99
2022-12-03T14:33:44.997Z,8.97
2022-12-03T14:35:09.871Z,8.85
2022-12-03T14:36:31.214Z,8.79
2022-12-03T14:37:52.277Z,8.79
2022-12-03T14:39:13.358Z,8.81
2022-12-03T14:40:34.669Z,8.77
2022-12-03T14:42:14.368Z,8.75
2022-12-03T14:43:35.359Z,8.71
2022-12-03T14:44:56.287Z,8.67
2022-12-03T14:46:17.217Z,8.68
2022-12-03T14:47:38.731Z,8.64
2022-12-03T14:48:59.638Z,8.64
2022-12-03T14:50:20.999Z,8.63
2022-12-03T14:51:42.010Z,8.63
2022-12-03T14:53:03.256Z,8.61
2022-12-03T14:54:24.716Z,8.58
2022-12-03T14:55:48.097Z,8.52
2022-12-03T14:57:09.563Z,8.53
2022-12-03T14:58:30.656Z,8.51
2022-12-03T14:59:55.601Z,8.50
2022-12-03T15:01:16.889Z,8.45
2022-12-03T15:02:38.121Z,8.38
2022-12-03T15:04:01.737Z,8.29
2022-12-03T15:05:28.157Z,8.28
2022-12-03T15:06:49.865Z,8.29
2022-12-03T15:08:11.113Z,8.26
2022-12-03T15:09:32.467Z,8.23
2022-12-03T15:10:54.010Z,8.18
2022-12-03T15:12:14.806Z,8.16
2022-12-03T15:13:36.000Z,8.14
2022-12-03T15:14:57.119Z,8.15
2022-12-03T15:16:18.431Z,8.16
2022-12-03T15:17:40.026Z,8.09
2022-12-03T15:19:01.369Z,8.06
2022-12-03T15:20:22.887Z,8.08
2022-12-03T15:21:44.143Z,8.03
2022-12-03T15:23:08.796Z,8.03
2022-12-03T15:24:32.164Z,8.05
2022-12-03T15:25:53.533Z,8.03
2022-12-03T15:27:16.161Z,8.07
2022-12-03T15:28:37.330Z,8.06
2022-12-03T15:29:58.474Z,8.11
2022-12-03T15:31:19.513Z,8.16
2022-12-03T15:32:40.729Z,8.20
2022-12-03T15:34:01.739Z,8.27
2022-12-03T15:35:23.185Z,8.26
2022-12-03T15:36:44.348Z,8.23
2022-12-03T15:38:05.548Z,8.31
2022-12-03T15:39:26.791Z,8.33
2022-12-03T15:40:48.044Z,8.31
2022-12-03T15:42:11.393Z,8.33
2022-12-03T15:43:32.516Z,8.33
2022-12-03T15:44:53.669Z,8.31
2022-12-03T15:46:14.636Z,8.29
2022-12-03T15:47:35.368Z,8.29
2022-12-03T15:48:56.493Z,8.27
2022-12-03T15:50:17.772Z,8.21
2022-12-03T15:51:39.342Z,8.17
2022-12-03T15:53:00.617Z,8.15
2022-12-03T15:54:21.943Z,8.13
2022-12-03T15:55:43.232Z,8.12
2022-12-03T15:57:04.192Z,7.98
2022-12-03T15:58:25.411Z,7.99
2022-12-03T15:59:46.313Z,7.98
2022-12-03T16:01:08.953Z,7.91
2022-12-03T16:02:33.881Z,7.89
2022-12-03T16:03:55.024Z,7.89
2022-12-03T16:05:16.643Z,7.82
2022-12-03T16:06:37.853Z,7.83
2022-12-03T16:07:59.164Z,7.75
2022-12-03T16:09:26.687Z,7.77
2022-12-03T16:10:48.565Z,7.76
2022-12-03T16:12:09.558Z,7.75
2022-12-03T16:13:30.830Z,7.77
2022-12-03T16:14:51.983Z,7.79
2022-12-03T16:16:13.275Z,7.79
2022-12-03T16:17:36.928Z,7.78
2022-12-03T16:18:58.278Z,7.79
2022-12-03T16:20:19.406Z,7.81
2022-12-03T16:21:40.692Z,7.75
2022-12-03T16:23:01.828Z,7.73
2022-12-03T16:24:22.934Z,7.69
2022-12-03T16:25:44.133Z,7.73
2022-12-03T16:27:05.370Z,7.73
2022-12-03T16:28:26.465Z,7.70
2022-12-03T16:29:47.741Z,7.75
2022-12-03T16:31:08.902Z,7.76
2022-12-03T16:32:30.061Z,7.73
2022-12-03T16:33:51.368Z,7.74
2022-12-03T16:35:12.837Z,7.73
2022-12-03T16:36:34.036Z,7.72
2022-12-03T16:37:55.226Z,7.72
2022-12-03T16:39:16.643Z,7.72
2022-12-03T16:40:38.157Z,7.72
2022-12-03T16:41:59.435Z,7.66
2022-12-03T16:43:20.826Z,7.67
2022-12-03T16:45:05.139Z,7.68
2022-12-03T16:46:26.740Z,7.68
2022-12-03T16:47:48.192Z,7.70
2022-12-03T16:49:09.482Z,7.72
2022-12-03T16:50:30.650Z,7.72
2022-12-03T16:51:52.120Z,7.70
2022-12-03T16:53:13.527Z,7.72
2022-12-03T16:54:34.756Z,7.69
2022-12-03T16:55:55.686Z,7.70
2022-12-03T16:57:17.042Z,7.69
2022-12-03T16:58:46.758Z,7.67
2022-12-03T17:00:26.651Z,7.69
2022-12-03T17:01:47.586Z,7.67
2022-12-03T17:03:08.816Z,7.65
2022-12-03T17:04:32.970Z,7.62
2022-12-03T17:05:54.251Z,7.58
2022-12-03T17:07:15.127Z,7.46
2022-12-03T17:08:36.712Z,7.50
2022-12-03T17:09:58.026Z,7.45
2022-12-03T17:11:19.448Z,7.34
2022-12-03T17:13:07.804Z,7.30
2022-12-03T17:14:21.584Z,7.31
2022-12-03T17:15:42.764Z,7.32
2022-12-03T17:17:03.839Z,7.37
2022-12-03T17:18:25.997Z,7.37
2022-12-03T17:19:47.373Z,7.37
2022-12-03T17:21:08.533Z,7.39
2022-12-03T17:22:29.582Z,7.41
2022-12-03T17:23:51.153Z,7.42
2022-12-03T17:25:12.832Z,7.39
2022-12-03T17:26:33.998Z,7.42
2022-12-03T17:27:55.033Z,7.42
2022-12-03T17:29:15.997Z,7.41
2022-12-03T17:30:37.202Z,7.42
2022-12-03T17:31:58.504Z,7.46
2022-12-03T17:33:19.631Z,7.45
2022-12-03T17:34:40.599Z,7.46
2022-12-03T17:36:02.004Z,7.44
2022-12-03T17:37:23.068Z,7.48
2022-12-03T17:38:44.326Z,7.43
2022-12-03T17:40:07.517Z,7.45
2022-12-03T17:41:28.705Z,7.46
2022-12-03T17:42:49.887Z,7.43
2022-12-03T17:44:15.094Z,7.42
2022-12-03T17:45:38.780Z,7.44
2022-12-03T17:47:00.288Z,7.45
2022-12-03T17:48:21.788Z,7.44
2022-12-03T17:49:42.692Z,7.37
2022-12-03T17:51:03.605Z,7.39
2022-12-03T17:52:24.713Z,7.39
2022-12-03T17:53:45.705Z,7.37
2022-12-03T17:55:14.006Z,7.38
2022-12-03T17:56:39.445Z,7.36
2022-12-03T17:58:00.712Z,7.30
2022-12-03T17:59:21.831Z,7.28
2022-12-03T18:00:43.945Z,7.29
2022-12-03T18:02:04.975Z,7.27
2022-12-03T18:03:25.980Z,7.27
2022-12-03T18:04:47.195Z,7.27
2022-12-03T18:06:08.400Z,7.24
2022-12-03T18:07:29.369Z,7.26
2022-12-03T18:08:50.550Z,7.31
2022-12-03T18:10:11.642Z,7.32
2022-12-03T18:11:33.405Z,7.32
2022-12-03T18:12:59.914Z,7.30
2022-12-03T18:14:23.377Z,7.30
2022-12-03T18:15:44.341Z,7.31
2022-12-03T18:17:05.334Z,7.33
2022-12-03T18:18:26.372Z,7.35
2022-12-03T18:19:47.439Z,7.33
2022-12-03T18:21:08.425Z,7.36
2022-12-03T18:22:31.453Z,7.35
2022-12-03T18:23:52.777Z,7.31
2022-12-03T18:25:20.029Z,7.30